sensor_id;sensor_type;location;lat;lon;timestamp;P1;durP1;ratioP1;P2;durP2;ratioP2
57101;SDS011;42982;54.558;18.508;2023-07-29T08:30:11;7.28;;;1.50;;
57101;SDS011;42982;54.558;18.508;2023-07-29T08:31:18;2.33;;;1.50;;
57101;SDS011;42982;54.558;18.508;2023-07-29T08:32:22;1.88;;;1.33;;
57101;SDS011;42982;54.558;18.508;2023-07-29T08:33:25;3.58;;;1.50;;
57101;SDS011;42982;54.558;18.508;2023-07-29T08:34:33;2.80;;;1.40;;
57101;SDS011;42982;54.558;18.508;2023-07-29T08:35:35;1.90;;;1.50;;
57101;SDS011;42982;54.558;18.508;2023-07-29T08:36:37;2.83;;;1.50;;
57101;SDS011;42982;54.558;18.508;2023-07-29T08:37:38;2.65;;;1.65;;
57101;SDS011;42982;54.558;18.508;2023-07-29T08:38:40;2.42;;;1.58;;
57101;SDS011;42982;54.558;18.508;2023-07-29T08:39:44;2.08;;;1.42;;
57101;SDS011;42982;54.558;18.508;2023-07-29T08:42:16;3.00;;;1.80;;
57101;SDS011;42982;54.558;18.508;2023-07-29T08:43:20;1.95;;;1.33;;
57101;SDS011;42982;54.558;18.508;2023-07-29T08:44:30;2.67;;;1.50;;
57101;SDS011;42982;54.558;18.508;2023-07-29T08:45:38;2.03;;;1.50;;
57101;SDS011;42982;54.558;18.508;2023-07-29T08:46:44;1.90;;;1.50;;
57101;SDS011;42982;54.558;18.508;2023-07-29T08:47:50;2.67;;;1.40;;
57101;SDS011;42982;54.558;18.508;2023-07-29T08:49:00;3.45;;;1.55;;
57101;SDS011;42982;54.558;18.508;2023-07-29T08:50:05;2.17;;;1.40;;
57101;SDS011;42982;54.558;18.508;2023-07-29T08:51:14;3.90;;;1.30;;
57101;SDS011;42982;54.558;18.508;2023-07-29T08:52:20;1.80;;;1.30;;
57101;SDS011;42982;54.558;18.508;2023-07-29T08:53:25;2.10;;;1.40;;
57101;SDS011;42982;54.558;18.508;2023-07-29T08:54:28;2.30;;;1.50;;
57101;SDS011;42982;54.558;18.508;2023-07-29T08:55:31;1.70;;;1.38;;
57101;SDS011;42982;54.558;18.508;2023-07-29T08:56:33;2.17;;;1.40;;
57101;SDS011;42982;54.558;18.508;2023-07-29T08:57:40;2.05;;;1.20;;
57101;SDS011;42982;54.558;18.508;2023-07-29T08:58:42;2.75;;;1.60;;
57101;SDS011;42982;54.558;18.508;2023-07-29T08:59:47;1.92;;;1.60;;
57101;SDS011;42982;54.558;18.508;2023-07-29T09:00:52;8.75;;;2.60;;
57101;SDS011;42982;54.558;18.508;2023-07-29T09:01:53;5.70;;;2.33;;
57101;SDS011;42982;54.558;18.508;2023-07-29T09:04:07;31.27;;;15.80;;
57101;SDS011;42982;54.558;18.508;2023-07-29T09:05:08;63.15;;;32.28;;
57101;SDS011;42982;54.558;18.508;2023-07-29T09:06:12;68.93;;;36.90;;
57101;SDS011;42982;54.558;18.508;2023-07-29T09:07:15;60.85;;;33.67;;
57101;SDS011;42982;54.558;18.508;2023-07-29T09:08:17;14.93;;;7.38;;
57101;SDS011;42982;54.558;18.508;2023-07-29T09:09:25;13.25;;;6.82;;
57101;SDS011;42982;54.558;18.508;2023-07-29T09:10:26;4.03;;;2.35;;
57101;SDS011;42982;54.558;18.508;2023-07-29T09:11:28;4.80;;;1.95;;
57101;SDS011;42982;54.558;18.508;2023-07-29T09:12:34;15.75;;;8.35;;
57101;SDS011;42982;54.558;18.508;2023-07-29T09:13:36;16.35;;;9.32;;
57101;SDS011;42982;54.558;18.508;2023-07-29T09:14:38;10.65;;;6.05;;
57101;SDS011;42982;54.558;18.508;2023-07-29T09:15:39;12.05;;;5.90;;
57101;SDS011;42982;54.558;18.508;2023-07-29T09:16:43;16.73;;;9.65;;
57101;SDS011;42982;54.558;18.508;2023-07-29T09:17:48;13.25;;;7.80;;
57101;SDS011;42982;54.558;18.508;2023-07-29T09:18:52;16.60;;;9.02;;
57101;SDS011;42982;54.558;18.508;2023-07-29T09:19:58;7.90;;;4.30;;
57101;SDS011;42982;54.558;18.508;2023-07-29T09:20:59;8.15;;;4.78;;
57101;SDS011;42982;54.558;18.508;2023-07-29T09:22:01;6.10;;;3.72;;
57101;SDS011;42982;54.558;18.508;2023-07-29T09:23:03;3.70;;;2.42;;
57101;SDS011;42982;54.558;18.508;2023-07-29T09:24:10;3.65;;;2.33;;
57101;SDS011;42982;54.558;18.508;2023-07-29T09:25:15;7.32;;;4.78;;
57101;SDS011;42982;54.558;18.508;2023-07-29T09:26:23;8.48;;;3.72;;
57101;SDS011;42982;54.558;18.508;2023-07-29T09:27:30;5.22;;;2.70;;
57101;SDS011;42982;54.558;18.508;2023-07-29T09:28:36;3.40;;;2.17;;
57101;SDS011;42982;54.558;18.508;2023-07-29T09:29:39;3.10;;;1.63;;
57101;SDS011;42982;54.558;18.508;2023-07-29T09:30:41;2.53;;;1.55;;
57101;SDS011;42982;54.558;18.508;2023-07-29T09:31:44;6.35;;;1.88;;
57101;SDS011;42982;54.558;18.508;2023-07-29T09:32:52;4.22;;;2.00;;
57101;SDS011;42982;54.558;18.508;2023-07-29T09:34:17;2.38;;;1.65;;
57101;SDS011;42982;54.558;18.508;2023-07-29T09:35:20;1.73;;;1.35;;
57101;SDS011;42982;54.558;18.508;2023-07-29T09:36:23;2.60;;;1.65;;
57101;SDS011;42982;54.558;18.508;2023-07-29T09:37:25;1.92;;;1.42;;
57101;SDS011;42982;54.558;18.508;2023-07-29T09:38:30;2.25;;;1.60;;
57101;SDS011;42982;54.558;18.508;2023-07-29T09:39:41;3.30;;;1.92;;
57101;SDS011;42982;54.558;18.508;2023-07-29T09:40:47;2.90;;;1.58;;
57101;SDS011;42982;54.558;18.508;2023-07-29T09:41:50;2.22;;;1.45;;
57101;SDS011;42982;54.558;18.508;2023-07-29T09:42:58;1.98;;;1.50;;
57101;SDS011;42982;54.558;18.508;2023-07-29T09:44:02;2.38;;;1.50;;
57101;SDS011;42982;54.558;18.508;2023-07-29T09:45:09;1.83;;;1.30;;
57101;SDS011;42982;54.558;18.508;2023-07-29T09:46:12;1.88;;;1.45;;
57101;SDS011;42982;54.558;18.508;2023-07-29T09:47:20;1.83;;;1.40;;
57101;SDS011;42982;54.558;18.508;2023-07-29T09:48:24;2.40;;;1.23;;
57101;SDS011;42982;54.558;18.508;2023-07-29T09:49:34;1.65;;;1.30;;
57101;SDS011;42982;54.558;18.508;2023-07-29T09:50:38;1.80;;;1.20;;
57101;SDS011;42982;54.558;18.508;2023-07-29T09:51:40;2.92;;;1.25;;
57101;SDS011;42982;54.558;18.508;2023-07-29T09:52:44;2.88;;;1.60;;
57101;SDS011;42982;54.558;18.508;2023-07-29T09:53:51;2.60;;;1.40;;
57101;SDS011;42982;54.558;18.508;2023-07-29T09:54:56;1.90;;;1.45;;
57101;SDS011;42982;54.558;18.508;2023-07-29T09:55:57;2.88;;;1.60;;
57101;SDS011;42982;54.558;18.508;2023-07-29T09:56:59;1.77;;;1.30;;
57101;SDS011;42982;54.558;18.508;2023-07-29T09:58:01;1.55;;;1.33;;
57101;SDS011;42982;54.558;18.508;2023-07-29T09:59:10;3.78;;;1.70;;
57101;SDS011;42982;54.558;18.508;2023-07-29T10:00:12;3.17;;;1.60;;
57101;SDS011;42982;54.558;18.508;2023-07-29T10:01:15;3.28;;;2.10;;
57101;SDS011;42982;54.558;18.508;2023-07-29T10:02:19;3.15;;;1.95;;
57101;SDS011;42982;54.558;18.508;2023-07-29T10:03:25;2.95;;;2.30;;
57101;SDS011;42982;54.558;18.508;2023-07-29T10:04:28;2.47;;;1.67;;
57101;SDS011;42982;54.558;18.508;2023-07-29T10:05:30;3.90;;;1.38;;
57101;SDS011;42982;54.558;18.508;2023-07-29T10:06:32;2.28;;;1.60;;
57101;SDS011;42982;54.558;18.508;2023-07-29T10:07:37;2.90;;;1.65;;
57101;SDS011;42982;54.558;18.508;2023-07-29T10:08:42;3.10;;;1.50;;
57101;SDS011;42982;54.558;18.508;2023-07-29T10:09:46;2.03;;;1.48;;
57101;SDS011;42982;54.558;18.508;2023-07-29T10:10:54;1.48;;;1.10;;
57101;SDS011;42982;54.558;18.508;2023-07-29T10:12:02;3.28;;;1.58;;
57101;SDS011;42982;54.558;18.508;2023-07-29T10:13:08;1.95;;;1.40;;
57101;SDS011;42982;54.558;18.508;2023-07-29T10:14:10;3.08;;;1.50;;
57101;SDS011;42982;54.558;18.508;2023-07-29T10:15:16;1.45;;;1.35;;
57101;SDS011;42982;54.558;18.508;2023-07-29T10:16:29;2.25;;;1.30;;
57101;SDS011;42982;54.558;18.508;2023-07-29T10:17:36;1.88;;;1.20;;
57101;SDS011;42982;54.558;18.508;2023-07-29T10:18:41;2.03;;;1.40;;
57101;SDS011;42982;54.558;18.508;2023-07-29T10:19:43;1.80;;;1.50;;
57101;SDS011;42982;54.558;18.508;2023-07-29T10:20:52;2.17;;;1.45;;
57101;SDS011;42982;54.558;18.508;2023-07-29T10:21:55;5.05;;;1.83;;
57101;SDS011;42982;54.558;18.508;2023-07-29T10:22:59;2.38;;;1.40;;
57101;SDS011;42982;54.558;18.508;2023-07-29T10:24:04;2.15;;;1.63;;
57101;SDS011;42982;54.558;18.508;2023-07-29T10:26:13;1.58;;;1.35;;
57101;SDS011;42982;54.558;18.508;2023-07-29T10:27:25;1.23;;;1.10;;
57101;SDS011;42982;54.558;18.508;2023-07-29T10:28:34;1.27;;;1.17;;
57101;SDS011;42982;54.558;18.508;2023-07-29T10:30:44;1.67;;;1.25;;
57101;SDS011;42982;54.558;18.508;2023-07-29T10:31:53;1.50;;;1.30;;
57101;SDS011;42982;54.558;18.508;2023-07-29T10:32:58;1.17;;;1.08;;
57101;SDS011;42982;54.558;18.508;2023-07-29T10:34:08;1.63;;;1.20;;
57101;SDS011;42982;54.558;18.508;2023-07-29T10:35:13;3.67;;;2.17;;
57101;SDS011;42982;54.558;18.508;2023-07-29T10:36:24;4.18;;;1.75;;
57101;SDS011;42982;54.558;18.508;2023-07-29T10:37:31;3.65;;;1.90;;
57101;SDS011;42982;54.558;18.508;2023-07-29T10:38:33;3.03;;;1.80;;
57101;SDS011;42982;54.558;18.508;2023-07-29T10:39:37;1.95;;;1.40;;
57101;SDS011;42982;54.558;18.508;2023-07-29T10:40:43;8.48;;;4.90;;
57101;SDS011;42982;54.558;18.508;2023-07-29T10:41:57;10.93;;;5.30;;
57101;SDS011;42982;54.558;18.508;2023-07-29T10:43:19;12.02;;;8.20;;
57101;SDS011;42982;54.558;18.508;2023-07-29T10:45:40;8.98;;;7.55;;
57101;SDS011;42982;54.558;18.508;2023-07-29T10:46:42;10.68;;;7.28;;
57101;SDS011;42982;54.558;18.508;2023-07-29T10:47:50;13.43;;;10.80;;
57101;SDS011;42982;54.558;18.508;2023-07-29T10:48:59;10.80;;;9.38;;
57101;SDS011;42982;54.558;18.508;2023-07-29T10:50:02;6.20;;;5.60;;
57101;SDS011;42982;54.558;18.508;2023-07-29T10:51:30;5.90;;;4.43;;
57101;SDS011;42982;54.558;18.508;2023-07-29T10:52:41;8.50;;;6.20;;
57101;SDS011;42982;54.558;18.508;2023-07-29T10:53:43;5.43;;;4.70;;
57101;SDS011;42982;54.558;18.508;2023-07-29T10:54:47;4.35;;;3.22;;
57101;SDS011;42982;54.558;18.508;2023-07-29T10:55:48;3.05;;;2.75;;
57101;SDS011;42982;54.558;18.508;2023-07-29T10:56:53;4.20;;;2.10;;
57101;SDS011;42982;54.558;18.508;2023-07-29T10:58:04;3.17;;;2.10;;
57101;SDS011;42982;54.558;18.508;2023-07-29T10:59:53;4.43;;;2.40;;
57101;SDS011;42982;54.558;18.508;2023-07-29T11:00:34;2.72;;;2.20;;
57101;SDS011;42982;54.558;18.508;2023-07-29T11:01:41;2.10;;;1.65;;
57101;SDS011;42982;54.558;18.508;2023-07-29T11:02:56;2.75;;;1.80;;
57101;SDS011;42982;54.558;18.508;2023-07-29T11:04:21;3.95;;;2.13;;
57101;SDS011;42982;54.558;18.508;2023-07-29T11:05:24;2.28;;;1.70;;
57101;SDS011;42982;54.558;18.508;2023-07-29T11:06:26;2.88;;;1.55;;
57101;SDS011;42982;54.558;18.508;2023-07-29T11:07:28;2.45;;;1.60;;
57101;SDS011;42982;54.558;18.508;2023-07-29T11:08:32;1.85;;;1.50;;
57101;SDS011;42982;54.558;18.508;2023-07-29T11:11:04;3.13;;;1.70;;
57101;SDS011;42982;54.558;18.508;2023-07-29T11:13:40;2.15;;;1.48;;
57101;SDS011;42982;54.558;18.508;2023-07-29T11:14:43;2.20;;;1.27;;
57101;SDS011;42982;54.558;18.508;2023-07-29T11:15:52;2.35;;;1.50;;
57101;SDS011;42982;54.558;18.508;2023-07-29T11:16:59;3.08;;;1.58;;
57101;SDS011;42982;54.558;18.508;2023-07-29T11:18:04;1.90;;;1.42;;
57101;SDS011;42982;54.558;18.508;2023-07-29T11:19:11;3.63;;;1.65;;
57101;SDS011;42982;54.558;18.508;2023-07-29T11:20:25;2.10;;;1.60;;
57101;SDS011;42982;54.558;18.508;2023-07-29T11:21:30;2.08;;;1.50;;
57101;SDS011;42982;54.558;18.508;2023-07-29T11:22:33;2.40;;;1.70;;
57101;SDS011;42982;54.558;18.508;2023-07-29T11:23:36;2.20;;;1.63;;
57101;SDS011;42982;54.558;18.508;2023-07-29T11:24:37;2.03;;;1.30;;
57101;SDS011;42982;54.558;18.508;2023-07-29T11:25:40;1.30;;;1.20;;
57101;SDS011;42982;54.558;18.508;2023-07-29T11:26:47;1.80;;;1.50;;
57101;SDS011;42982;54.558;18.508;2023-07-29T11:27:52;1.95;;;1.30;;
57101;SDS011;42982;54.558;18.508;2023-07-29T11:28:54;1.75;;;1.30;;
57101;SDS011;42982;54.558;18.508;2023-07-29T11:30:00;1.48;;;1.30;;
57101;SDS011;42982;54.558;18.508;2023-07-29T11:31:09;3.33;;;1.42;;
57101;SDS011;42982;54.558;18.508;2023-07-29T11:32:10;1.77;;;1.30;;
57101;SDS011;42982;54.558;18.508;2023-07-29T11:33:17;1.92;;;1.20;;
57101;SDS011;42982;54.558;18.508;2023-07-29T11:34:31;1.52;;;1.15;;
57101;SDS011;42982;54.558;18.508;2023-07-29T11:35:35;3.15;;;1.50;;
57101;SDS011;42982;54.558;18.508;2023-07-29T11:36:36;1.73;;;1.40;;
57101;SDS011;42982;54.558;18.508;2023-07-29T11:37:38;2.63;;;1.65;;
57101;SDS011;42982;54.558;18.508;2023-07-29T11:38:40;1.63;;;1.30;;
57101;SDS011;42982;54.558;18.508;2023-07-29T11:39:42;1.50;;;1.25;;
57101;SDS011;42982;54.558;18.508;2023-07-29T11:40:55;3.30;;;1.25;;
57101;SDS011;42982;54.558;18.508;2023-07-29T11:41:57;1.80;;;1.30;;
57101;SDS011;42982;54.558;18.508;2023-07-29T11:42:59;1.85;;;1.35;;
57101;SDS011;42982;54.558;18.508;2023-07-29T11:44:01;2.17;;;1.48;;
57101;SDS011;42982;54.558;18.508;2023-07-29T11:45:03;3.08;;;1.33;;
57101;SDS011;42982;54.558;18.508;2023-07-29T11:46:08;2.00;;;1.48;;
57101;SDS011;42982;54.558;18.508;2023-07-29T11:47:12;1.85;;;1.40;;
57101;SDS011;42982;54.558;18.508;2023-07-29T11:48:13;1.70;;;1.35;;
57101;SDS011;42982;54.558;18.508;2023-07-29T11:49:15;3.00;;;1.50;;
57101;SDS011;42982;54.558;18.508;2023-07-29T11:50:16;1.48;;;1.38;;
57101;SDS011;42982;54.558;18.508;2023-07-29T11:51:18;2.90;;;1.77;;
57101;SDS011;42982;54.558;18.508;2023-07-29T11:52:20;1.48;;;1.30;;
57101;SDS011;42982;54.558;18.508;2023-07-29T11:53:27;2.50;;;1.45;;
57101;SDS011;42982;54.558;18.508;2023-07-29T11:54:34;1.60;;;1.27;;
57101;SDS011;42982;54.558;18.508;2023-07-29T11:55:37;2.03;;;1.80;;
57101;SDS011;42982;54.558;18.508;2023-07-29T11:56:42;1.70;;;1.50;;
57101;SDS011;42982;54.558;18.508;2023-07-29T11:57:49;3.15;;;1.60;;
57101;SDS011;42982;54.558;18.508;2023-07-29T11:58:56;1.70;;;1.27;;
57101;SDS011;42982;54.558;18.508;2023-07-29T11:59:58;2.78;;;1.30;;
57101;SDS011;42982;54.558;18.508;2023-07-29T12:01:09;2.15;;;1.65;;
57101;SDS011;42982;54.558;18.508;2023-07-29T12:02:12;2.75;;;1.40;;
57101;SDS011;42982;54.558;18.508;2023-07-29T12:03:16;3.60;;;1.30;;
57101;SDS011;42982;54.558;18.508;2023-07-29T12:04:20;2.00;;;1.50;;
57101;SDS011;42982;54.558;18.508;2023-07-29T12:05:23;2.20;;;1.30;;
57101;SDS011;42982;54.558;18.508;2023-07-29T12:06:28;1.48;;;1.30;;
57101;SDS011;42982;54.558;18.508;2023-07-29T12:07:38;3.67;;;1.30;;
57101;SDS011;42982;54.558;18.508;2023-07-29T12:08:43;1.50;;;1.30;;
57101;SDS011;42982;54.558;18.508;2023-07-29T12:09:45;2.22;;;1.40;;
57101;SDS011;42982;54.558;18.508;2023-07-29T12:10:48;1.70;;;1.20;;
57101;SDS011;42982;54.558;18.508;2023-07-29T12:11:59;2.05;;;1.63;;
57101;SDS011;42982;54.558;18.508;2023-07-29T12:13:01;1.33;;;1.23;;
57101;SDS011;42982;54.558;18.508;2023-07-29T12:14:06;1.67;;;1.40;;
57101;SDS011;42982;54.558;18.508;2023-07-29T12:15:11;1.70;;;1.30;;
57101;SDS011;42982;54.558;18.508;2023-07-29T12:16:16;1.85;;;1.27;;
57101;SDS011;42982;54.558;18.508;2023-07-29T12:17:20;4.15;;;1.73;;
57101;SDS011;42982;54.558;18.508;2023-07-29T12:18:32;6.60;;;2.65;;
57101;SDS011;42982;54.558;18.508;2023-07-29T12:19:37;3.97;;;2.00;;
57101;SDS011;42982;54.558;18.508;2023-07-29T12:20:41;3.35;;;1.83;;
57101;SDS011;42982;54.558;18.508;2023-07-29T12:21:45;4.93;;;2.60;;
57101;SDS011;42982;54.558;18.508;2023-07-29T12:22:54;12.80;;;3.47;;
57101;SDS011;42982;54.558;18.508;2023-07-29T12:23:57;6.68;;;2.88;;
57101;SDS011;42982;54.558;18.508;2023-07-29T12:25:00;5.07;;;2.08;;
57101;SDS011;42982;54.558;18.508;2023-07-29T12:26:06;2.72;;;1.50;;
57101;SDS011;42982;54.558;18.508;2023-07-29T12:27:14;5.28;;;1.77;;
57101;SDS011;42982;54.558;18.508;2023-07-29T12:28:21;4.32;;;2.10;;
57101;SDS011;42982;54.558;18.508;2023-07-29T12:29:24;4.13;;;2.15;;
57101;SDS011;42982;54.558;18.508;2023-07-29T12:30:29;3.13;;;1.85;;
57101;SDS011;42982;54.558;18.508;2023-07-29T12:31:37;3.15;;;1.90;;
57101;SDS011;42982;54.558;18.508;2023-07-29T12:32:44;3.10;;;1.85;;
57101;SDS011;42982;54.558;18.508;2023-07-29T12:34:02;3.50;;;1.58;;
57101;SDS011;42982;54.558;18.508;2023-07-29T12:35:07;1.35;;;1.20;;
57101;SDS011;42982;54.558;18.508;2023-07-29T12:36:11;5.85;;;1.42;;
57101;SDS011;42982;54.558;18.508;2023-07-29T12:37:15;1.55;;;1.35;;
57101;SDS011;42982;54.558;18.508;2023-07-29T12:38:25;1.52;;;1.40;;
57101;SDS011;42982;54.558;18.508;2023-07-29T12:39:33;2.72;;;1.30;;
57101;SDS011;42982;54.558;18.508;2023-07-29T12:40:37;3.28;;;1.45;;
57101;SDS011;42982;54.558;18.508;2023-07-29T12:41:45;2.33;;;1.40;;
57101;SDS011;42982;54.558;18.508;2023-07-29T12:42:50;2.28;;;1.40;;
57101;SDS011;42982;54.558;18.508;2023-07-29T12:43:56;1.48;;;1.25;;
57101;SDS011;42982;54.558;18.508;2023-07-29T12:45:01;1.52;;;1.27;;
57101;SDS011;42982;54.558;18.508;2023-07-29T12:46:05;2.97;;;1.30;;
57101;SDS011;42982;54.558;18.508;2023-07-29T12:47:14;1.67;;;1.30;;
57101;SDS011;42982;54.558;18.508;2023-07-29T12:48:17;2.40;;;1.48;;
57101;SDS011;42982;54.558;18.508;2023-07-29T12:49:22;1.88;;;1.40;;
57101;SDS011;42982;54.558;18.508;2023-07-29T12:50:23;3.03;;;1.30;;
57101;SDS011;42982;54.558;18.508;2023-07-29T12:51:30;2.25;;;1.27;;
57101;SDS011;42982;54.558;18.508;2023-07-29T12:52:36;2.40;;;1.40;;
57101;SDS011;42982;54.558;18.508;2023-07-29T12:53:39;2.72;;;1.58;;
57101;SDS011;42982;54.558;18.508;2023-07-29T12:54:48;1.88;;;1.40;;
57101;SDS011;42982;54.558;18.508;2023-07-29T12:55:50;2.03;;;1.33;;
57101;SDS011;42982;54.558;18.508;2023-07-29T12:56:51;2.55;;;1.70;;
57101;SDS011;42982;54.558;18.508;2023-07-29T12:57:53;3.75;;;1.48;;
57101;SDS011;42982;54.558;18.508;2023-07-29T12:59:01;3.97;;;1.55;;
57101;SDS011;42982;54.558;18.508;2023-07-29T13:00:03;2.10;;;1.50;;
57101;SDS011;42982;54.558;18.508;2023-07-29T13:01:07;1.88;;;1.40;;
57101;SDS011;42982;54.558;18.508;2023-07-29T13:02:14;2.30;;;1.73;;
57101;SDS011;42982;54.558;18.508;2023-07-29T13:03:15;2.65;;;1.60;;
57101;SDS011;42982;54.558;18.508;2023-07-29T13:04:19;2.28;;;1.70;;
57101;SDS011;42982;54.558;18.508;2023-07-29T13:05:29;2.28;;;1.73;;
57101;SDS011;42982;54.558;18.508;2023-07-29T13:06:36;2.33;;;1.63;;
57101;SDS011;42982;54.558;18.508;2023-07-29T13:07:45;2.63;;;1.70;;
57101;SDS011;42982;54.558;18.508;2023-07-29T13:08:46;2.53;;;1.73;;
57101;SDS011;42982;54.558;18.508;2023-07-29T13:09:52;1.50;;;1.40;;
57101;SDS011;42982;54.558;18.508;2023-07-29T13:10:54;1.92;;;1.55;;
57101;SDS011;42982;54.558;18.508;2023-07-29T13:11:59;2.35;;;1.52;;
57101;SDS011;42982;54.558;18.508;2023-07-29T13:13:05;2.78;;;1.70;;
57101;SDS011;42982;54.558;18.508;2023-07-29T13:14:07;3.13;;;1.70;;
57101;SDS011;42982;54.558;18.508;2023-07-29T13:15:08;4.60;;;1.50;;
57101;SDS011;42982;54.558;18.508;2023-07-29T13:16:12;2.65;;;1.50;;
57101;SDS011;42982;54.558;18.508;2023-07-29T13:17:14;5.15;;;1.88;;
57101;SDS011;42982;54.558;18.508;2023-07-29T13:18:18;2.05;;;1.70;;
57101;SDS011;42982;54.558;18.508;2023-07-29T13:19:25;2.58;;;1.90;;
57101;SDS011;42982;54.558;18.508;2023-07-29T13:20:29;1.83;;;1.38;;
57101;SDS011;42982;54.558;18.508;2023-07-29T13:21:31;1.80;;;1.38;;
57101;SDS011;42982;54.558;18.508;2023-07-29T13:22:35;2.35;;;1.40;;
57101;SDS011;42982;54.558;18.508;2023-07-29T13:23:47;2.88;;;1.80;;
57101;SDS011;42982;54.558;18.508;2023-07-29T13:24:49;1.63;;;1.50;;
57101;SDS011;42982;54.558;18.508;2023-07-29T13:25:53;1.75;;;1.60;;
57101;SDS011;42982;54.558;18.508;2023-07-29T13:26:55;2.63;;;1.60;;
57101;SDS011;42982;54.558;18.508;2023-07-29T13:27:57;3.15;;;1.60;;
57101;SDS011;42982;54.558;18.508;2023-07-29T13:29:02;1.90;;;1.50;;
57101;SDS011;42982;54.558;18.508;2023-07-29T13:30:08;2.42;;;1.65;;
57101;SDS011;42982;54.558;18.508;2023-07-29T13:31:11;3.33;;;1.80;;
57101;SDS011;42982;54.558;18.508;2023-07-29T13:32:13;1.65;;;1.48;;
57101;SDS011;42982;54.558;18.508;2023-07-29T13:33:17;6.32;;;1.90;;
57101;SDS011;42982;54.558;18.508;2023-07-29T13:34:22;5.70;;;1.88;;
57101;SDS011;42982;54.558;18.508;2023-07-29T13:35:24;4.93;;;2.13;;
57101;SDS011;42982;54.558;18.508;2023-07-29T13:36:26;4.88;;;2.53;;
57101;SDS011;42982;54.558;18.508;2023-07-29T13:37:28;6.88;;;3.45;;
57101;SDS011;42982;54.558;18.508;2023-07-29T13:38:31;4.90;;;2.47;;
57101;SDS011;42982;54.558;18.508;2023-07-29T13:39:38;6.05;;;2.53;;
57101;SDS011;42982;54.558;18.508;2023-07-29T13:40:39;7.32;;;3.58;;
57101;SDS011;42982;54.558;18.508;2023-07-29T13:41:42;11.05;;;4.20;;
57101;SDS011;42982;54.558;18.508;2023-07-29T13:42:44;16.13;;;6.93;;
57101;SDS011;42982;54.558;18.508;2023-07-29T13:43:47;12.63;;;5.10;;
57101;SDS011;42982;54.558;18.508;2023-07-29T13:44:50;8.45;;;3.30;;
57101;SDS011;42982;54.558;18.508;2023-07-29T13:45:54;5.57;;;2.90;;
57101;SDS011;42982;54.558;18.508;2023-07-29T13:46:57;8.13;;;3.92;;
57101;SDS011;42982;54.558;18.508;2023-07-29T13:47:59;6.45;;;2.50;;
57101;SDS011;42982;54.558;18.508;2023-07-29T13:49:01;7.57;;;3.38;;
57101;SDS011;42982;54.558;18.508;2023-07-29T13:50:06;15.85;;;5.90;;
57101;SDS011;42982;54.558;18.508;2023-07-29T13:51:12;12.73;;;5.88;;
57101;SDS011;42982;54.558;18.508;2023-07-29T13:52:17;20.23;;;6.80;;
57101;SDS011;42982;54.558;18.508;2023-07-29T13:53:22;13.50;;;4.57;;
57101;SDS011;42982;54.558;18.508;2023-07-29T13:54:24;8.65;;;3.70;;
57101;SDS011;42982;54.558;18.508;2023-07-29T13:55:31;10.68;;;4.50;;
57101;SDS011;42982;54.558;18.508;2023-07-29T13:56:36;9.50;;;4.25;;
57101;SDS011;42982;54.558;18.508;2023-07-29T13:57:39;11.75;;;4.95;;
57101;SDS011;42982;54.558;18.508;2023-07-29T13:58:40;10.38;;;4.32;;
57101;SDS011;42982;54.558;18.508;2023-07-29T13:59:43;12.32;;;4.20;;
57101;SDS011;42982;54.558;18.508;2023-07-29T14:00:47;10.90;;;4.85;;
57101;SDS011;42982;54.558;18.508;2023-07-29T14:01:49;11.25;;;4.60;;
57101;SDS011;42982;54.558;18.508;2023-07-29T14:02:53;7.30;;;3.30;;
57101;SDS011;42982;54.558;18.508;2023-07-29T14:03:56;5.68;;;2.83;;
57101;SDS011;42982;54.558;18.508;2023-07-29T14:04:58;7.72;;;3.40;;
57101;SDS011;42982;54.558;18.508;2023-07-29T14:06:01;5.43;;;2.72;;
57101;SDS011;42982;54.558;18.508;2023-07-29T14:07:06;7.75;;;2.90;;
57101;SDS011;42982;54.558;18.508;2023-07-29T14:08:08;4.97;;;2.38;;
57101;SDS011;42982;54.558;18.508;2023-07-29T14:09:12;7.32;;;2.40;;
57101;SDS011;42982;54.558;18.508;2023-07-29T14:10:15;8.00;;;3.10;;
57101;SDS011;42982;54.558;18.508;2023-07-29T14:11:20;4.90;;;2.40;;
57101;SDS011;42982;54.558;18.508;2023-07-29T14:12:22;4.13;;;2.40;;
57101;SDS011;42982;54.558;18.508;2023-07-29T14:13:26;4.28;;;2.28;;
57101;SDS011;42982;54.558;18.508;2023-07-29T14:14:30;5.20;;;2.40;;
57101;SDS011;42982;54.558;18.508;2023-07-29T14:15:33;4.32;;;2.38;;
57101;SDS011;42982;54.558;18.508;2023-07-29T14:16:38;5.78;;;2.80;;
57101;SDS011;42982;54.558;18.508;2023-07-29T14:17:40;5.32;;;3.05;;
57101;SDS011;42982;54.558;18.508;2023-07-29T14:18:44;4.70;;;2.50;;
57101;SDS011;42982;54.558;18.508;2023-07-29T14:19:51;3.63;;;2.22;;
57101;SDS011;42982;54.558;18.508;2023-07-29T14:20:55;4.25;;;2.30;;
57101;SDS011;42982;54.558;18.508;2023-07-29T14:22:02;2.13;;;1.80;;
57101;SDS011;42982;54.558;18.508;2023-07-29T14:23:11;5.68;;;1.63;;
57101;SDS011;42982;54.558;18.508;2023-07-29T14:24:15;5.28;;;1.60;;
57101;SDS011;42982;54.558;18.508;2023-07-29T14:25:20;2.72;;;1.77;;
57101;SDS011;42982;54.558;18.508;2023-07-29T14:26:22;2.83;;;1.98;;
57101;SDS011;42982;54.558;18.508;2023-07-29T14:27:36;3.25;;;1.60;;
57101;SDS011;42982;54.558;18.508;2023-07-29T14:28:37;1.55;;;1.40;;
57101;SDS011;42982;54.558;18.508;2023-07-29T14:29:43;2.53;;;1.70;;
57101;SDS011;42982;54.558;18.508;2023-07-29T14:30:48;3.25;;;1.60;;
57101;SDS011;42982;54.558;18.508;2023-07-29T14:31:49;4.30;;;2.33;;
57101;SDS011;42982;54.558;18.508;2023-07-29T14:33:02;4.22;;;2.40;;
57101;SDS011;42982;54.558;18.508;2023-07-29T14:34:09;2.47;;;1.95;;
57101;SDS011;42982;54.558;18.508;2023-07-29T14:35:14;2.30;;;1.70;;
57101;SDS011;42982;54.558;18.508;2023-07-29T14:36:23;1.75;;;1.50;;
57101;SDS011;42982;54.558;18.508;2023-07-29T14:37:27;2.40;;;1.50;;
57101;SDS011;42982;54.558;18.508;2023-07-29T14:38:31;3.10;;;1.60;;
57101;SDS011;42982;54.558;18.508;2023-07-29T14:39:33;2.30;;;1.42;;
57101;SDS011;42982;54.558;18.508;2023-07-29T14:40:35;4.85;;;1.83;;
57101;SDS011;42982;54.558;18.508;2023-07-29T14:41:40;4.43;;;1.70;;
57101;SDS011;42982;54.558;18.508;2023-07-29T14:42:42;2.35;;;1.23;;
57101;SDS011;42982;54.558;18.508;2023-07-29T14:43:46;2.38;;;1.25;;
57101;SDS011;42982;54.558;18.508;2023-07-29T14:44:50;2.85;;;1.23;;
57101;SDS011;42982;54.558;18.508;2023-07-29T14:45:52;2.28;;;1.27;;
57101;SDS011;42982;54.558;18.508;2023-07-29T14:46:57;1.77;;;1.25;;
57101;SDS011;42982;54.558;18.508;2023-07-29T14:48:01;1.67;;;1.40;;
57101;SDS011;42982;54.558;18.508;2023-07-29T14:49:09;1.23;;;1.05;;
57101;SDS011;42982;54.558;18.508;2023-07-29T14:50:11;3.17;;;1.50;;
57101;SDS011;42982;54.558;18.508;2023-07-29T14:51:18;2.38;;;1.70;;
57101;SDS011;42982;54.558;18.508;2023-07-29T14:52:19;2.85;;;1.77;;
57101;SDS011;42982;54.558;18.508;2023-07-29T14:53:23;2.25;;;1.50;;
57101;SDS011;42982;54.558;18.508;2023-07-29T14:54:27;5.03;;;2.30;;
57101;SDS011;42982;54.558;18.508;2023-07-29T14:55:33;2.70;;;2.05;;
57101;SDS011;42982;54.558;18.508;2023-07-29T14:56:40;2.75;;;1.77;;
57101;SDS011;42982;54.558;18.508;2023-07-29T14:57:46;2.67;;;1.70;;
57101;SDS011;42982;54.558;18.508;2023-07-29T14:58:49;3.30;;;1.63;;
57101;SDS011;42982;54.558;18.508;2023-07-29T14:59:51;4.50;;;1.70;;
57101;SDS011;42982;54.558;18.508;2023-07-29T15:00:53;2.17;;;1.65;;
57101;SDS011;42982;54.558;18.508;2023-07-29T15:01:57;2.13;;;1.70;;
57101;SDS011;42982;54.558;18.508;2023-07-29T15:02:58;3.65;;;1.90;;
57101;SDS011;42982;54.558;18.508;2023-07-29T15:04:00;2.75;;;1.60;;